Etusivu
METAR-TAF:

METAR-TAF

Lentoasemat :

DeKalb Taylor Municipal Airport

DeKalb, Illinois, Yhdysvallat

Leveyspiiri: 41-55-55N, Pituuspiiri: 088-42-30W, korkeus merenpinnasta: 279 m

Tämänhetkinen sää

Tämä raportti tehtiin 24 minuuttia sitten, kello 06.15 UTC
Tuuli 3 kn lännestä/lounaasta
Lämpötila 3°C
Kosteus 100%
Ilmanpaine 1017 hPa
Näkyvyys: 4.8 km
Hajonneita pilviä 900 ft:n korkeudessa
Pilvistä 3500 ft:n korkeudessa
utua

METAR: KDKB 200615Z AUTO 24003KT 3SM BR BKN009 OVC035 03/03 A3003 RMK AO2 T00300030

Aika: 00:39 (06:39 UTC)


TAF: puuttuu

Säähavainnot ja -ennusteet yli 4000 lentoasemalta (METAR- ja TAF-raportit).

Käytössä olevat sääasemat on merkitty karttaan keltaisilla ja punaisilla pisteillä.

Aseta hiiri pisteen päälle nähdäksesi sääaseman nimen.

Klikkaa sitten nähdäksesi säähavainnot ja -ennusteet.

Kartan vaihtaminen: klikkaa mustalla rastilla varustettuja vihreitä pisteitä, niin voit zoomata sisään; viivalla varustettua vihreää pistettä, niin voit zoomata ulos tai vihreitä nuolia, niin pääset viereisille kartoille.


METAR-TAF: